sensor_id;sensor_type;location;lat;lon;timestamp;P1;durP1;ratioP1;P2;durP2;ratioP2
34984;SDS011;21190;58.750;17.004;2023-08-24T00:00:21;4.78;;;1.40;;
34984;SDS011;21190;58.750;17.004;2023-08-24T00:02:48;5.10;;;1.60;;
34984;SDS011;21190;58.750;17.004;2023-08-24T00:05:15;4.82;;;1.45;;
34984;SDS011;21190;58.750;17.004;2023-08-24T00:07:42;1.73;;;1.02;;
34984;SDS011;21190;58.750;17.004;2023-08-24T00:10:10;3.40;;;1.38;;
34984;SDS011;21190;58.750;17.004;2023-08-24T00:12:37;2.00;;;1.20;;
34984;SDS011;21190;58.750;17.004;2023-08-24T00:15:04;2.30;;;1.30;;
34984;SDS011;21190;58.750;17.004;2023-08-24T00:17:34;3.05;;;1.30;;
34984;SDS011;21190;58.750;17.004;2023-08-24T00:20:01;2.63;;;1.30;;
34984;SDS011;21190;58.750;17.004;2023-08-24T00:22:31;4.30;;;2.22;;
34984;SDS011;21190;58.750;17.004;2023-08-24T00:24:57;2.25;;;1.20;;
34984;SDS011;21190;58.750;17.004;2023-08-24T00:27:25;2.90;;;1.23;;
34984;SDS011;21190;58.750;17.004;2023-08-24T00:29:51;2.92;;;1.40;;
34984;SDS011;21190;58.750;17.004;2023-08-24T00:32:18;2.15;;;1.35;;
34984;SDS011;21190;58.750;17.004;2023-08-24T00:34:45;2.90;;;1.55;;
34984;SDS011;21190;58.750;17.004;2023-08-24T00:37:12;4.38;;;1.90;;
34984;SDS011;21190;58.750;17.004;2023-08-24T00:39:39;4.47;;;1.50;;
34984;SDS011;21190;58.750;17.004;2023-08-24T00:42:06;2.40;;;1.65;;
34984;SDS011;21190;58.750;17.004;2023-08-24T00:44:34;2.85;;;1.40;;
34984;SDS011;21190;58.750;17.004;2023-08-24T00:47:00;2.58;;;1.60;;
34984;SDS011;21190;58.750;17.004;2023-08-24T00:49:27;1.50;;;1.20;;
34984;SDS011;21190;58.750;17.004;2023-08-24T00:51:54;7.28;;;1.70;;
34984;SDS011;21190;58.750;17.004;2023-08-24T00:54:21;2.97;;;1.30;;
34984;SDS011;21190;58.750;17.004;2023-08-24T00:56:48;3.25;;;1.50;;
34984;SDS011;21190;58.750;17.004;2023-08-24T00:59:15;1.88;;;1.40;;
34984;SDS011;21190;58.750;17.004;2023-08-24T01:01:42;3.83;;;1.52;;
34984;SDS011;21190;58.750;17.004;2023-08-24T01:04:13;2.00;;;1.00;;
34984;SDS011;21190;58.750;17.004;2023-08-24T01:06:40;3.78;;;1.42;;
34984;SDS011;21190;58.750;17.004;2023-08-24T01:09:06;6.25;;;1.40;;
34984;SDS011;21190;58.750;17.004;2023-08-24T01:16:42;6.10;;;1.75;;
34984;SDS011;21190;58.750;17.004;2023-08-24T01:19:17;3.40;;;1.50;;
34984;SDS011;21190;58.750;17.004;2023-08-24T01:27:38;5.75;;;2.22;;
34984;SDS011;21190;58.750;17.004;2023-08-24T01:30:07;3.67;;;1.55;;
34984;SDS011;21190;58.750;17.004;2023-08-24T01:32:35;5.57;;;1.90;;
34984;SDS011;21190;58.750;17.004;2023-08-24T01:35:08;2.95;;;1.40;;
34984;SDS011;21190;58.750;17.004;2023-08-24T01:37:35;4.45;;;1.77;;
34984;SDS011;21190;58.750;17.004;2023-08-24T01:40:10;11.98;;;2.10;;
34984;SDS011;21190;58.750;17.004;2023-08-24T01:42:49;8.88;;;1.90;;
34984;SDS011;21190;58.750;17.004;2023-08-24T01:45:21;4.97;;;2.03;;
34984;SDS011;21190;58.750;17.004;2023-08-24T01:47:51;4.00;;;2.03;;
34984;SDS011;21190;58.750;17.004;2023-08-24T01:50:20;4.63;;;1.50;;
34984;SDS011;21190;58.750;17.004;2023-08-24T01:52:48;4.22;;;1.83;;
34984;SDS011;21190;58.750;17.004;2023-08-24T01:55:19;6.22;;;1.90;;
34984;SDS011;21190;58.750;17.004;2023-08-24T01:57:46;2.95;;;1.75;;
34984;SDS011;21190;58.750;17.004;2023-08-24T02:00:15;3.33;;;2.13;;
34984;SDS011;21190;58.750;17.004;2023-08-24T02:02:43;7.53;;;1.70;;
34984;SDS011;21190;58.750;17.004;2023-08-24T02:05:11;7.55;;;2.00;;
34984;SDS011;21190;58.750;17.004;2023-08-24T02:07:38;6.35;;;2.33;;
34984;SDS011;21190;58.750;17.004;2023-08-24T02:10:06;3.60;;;1.67;;
34984;SDS011;21190;58.750;17.004;2023-08-24T02:12:34;4.18;;;1.80;;
34984;SDS011;21190;58.750;17.004;2023-08-24T02:15:01;7.57;;;2.05;;
34984;SDS011;21190;58.750;17.004;2023-08-24T02:17:28;3.70;;;1.85;;
34984;SDS011;21190;58.750;17.004;2023-08-24T02:19:55;7.15;;;2.25;;
34984;SDS011;21190;58.750;17.004;2023-08-24T02:22:22;2.38;;;2.00;;
34984;SDS011;21190;58.750;17.004;2023-08-24T02:24:49;3.13;;;2.25;;
34984;SDS011;21190;58.750;17.004;2023-08-24T02:27:17;7.00;;;2.08;;
34984;SDS011;21190;58.750;17.004;2023-08-24T02:29:44;2.42;;;2.22;;
34984;SDS011;21190;58.750;17.004;2023-08-24T02:32:11;3.83;;;2.00;;
34984;SDS011;21190;58.750;17.004;2023-08-24T02:34:38;2.92;;;1.77;;
34984;SDS011;21190;58.750;17.004;2023-08-24T02:37:05;4.68;;;2.20;;
34984;SDS011;21190;58.750;17.004;2023-08-24T02:39:32;4.18;;;2.30;;
34984;SDS011;21190;58.750;17.004;2023-08-24T02:41:58;2.92;;;2.05;;
34984;SDS011;21190;58.750;17.004;2023-08-24T02:44:26;4.53;;;2.13;;
34984;SDS011;21190;58.750;17.004;2023-08-24T02:46:53;7.20;;;2.70;;
34984;SDS011;21190;58.750;17.004;2023-08-24T02:49:20;3.97;;;2.22;;
34984;SDS011;21190;58.750;17.004;2023-08-24T02:51:47;2.20;;;2.00;;
34984;SDS011;21190;58.750;17.004;2023-08-24T02:54:14;5.07;;;2.60;;
34984;SDS011;21190;58.750;17.004;2023-08-24T02:56:41;4.30;;;2.00;;
34984;SDS011;21190;58.750;17.004;2023-08-24T02:59:08;12.40;;;2.42;;
34984;SDS011;21190;58.750;17.004;2023-08-24T03:01:35;5.70;;;2.65;;
34984;SDS011;21190;58.750;17.004;2023-08-24T03:04:04;8.02;;;2.75;;
34984;SDS011;21190;58.750;17.004;2023-08-24T03:06:31;6.97;;;2.60;;
34984;SDS011;21190;58.750;17.004;2023-08-24T03:08:59;5.50;;;2.22;;
34984;SDS011;21190;58.750;17.004;2023-08-24T03:11:27;7.43;;;2.40;;
34984;SDS011;21190;58.750;17.004;2023-08-24T03:13:54;2.97;;;1.98;;
34984;SDS011;21190;58.750;17.004;2023-08-24T03:16:21;4.20;;;2.22;;
34984;SDS011;21190;58.750;17.004;2023-08-24T03:18:48;3.67;;;2.10;;
34984;SDS011;21190;58.750;17.004;2023-08-24T03:21:15;2.88;;;2.17;;
34984;SDS011;21190;58.750;17.004;2023-08-24T03:23:42;3.58;;;2.28;;
34984;SDS011;21190;58.750;17.004;2023-08-24T03:26:09;4.03;;;2.35;;
34984;SDS011;21190;58.750;17.004;2023-08-24T03:28:36;6.57;;;2.47;;
34984;SDS011;21190;58.750;17.004;2023-08-24T03:31:03;3.17;;;2.13;;
34984;SDS011;21190;58.750;17.004;2023-08-24T03:33:32;4.15;;;2.40;;
34984;SDS011;21190;58.750;17.004;2023-08-24T03:36:01;5.38;;;2.30;;
34984;SDS011;21190;58.750;17.004;2023-08-24T03:38:29;3.80;;;2.45;;
34984;SDS011;21190;58.750;17.004;2023-08-24T03:40:59;8.82;;;2.10;;
34984;SDS011;21190;58.750;17.004;2023-08-24T03:43:27;3.63;;;2.10;;
34984;SDS011;21190;58.750;17.004;2023-08-24T03:45:57;7.07;;;2.70;;
34984;SDS011;21190;58.750;17.004;2023-08-24T03:48:24;4.05;;;2.50;;
34984;SDS011;21190;58.750;17.004;2023-08-24T03:50:53;5.22;;;2.72;;
34984;SDS011;21190;58.750;17.004;2023-08-24T03:53:22;7.28;;;2.83;;
34984;SDS011;21190;58.750;17.004;2023-08-24T03:55:50;5.45;;;2.72;;
34984;SDS011;21190;58.750;17.004;2023-08-24T03:58:17;4.28;;;2.30;;
34984;SDS011;21190;58.750;17.004;2023-08-24T04:00:44;9.07;;;2.67;;
34984;SDS011;21190;58.750;17.004;2023-08-24T04:03:12;2.72;;;2.28;;
34984;SDS011;21190;58.750;17.004;2023-08-24T04:05:39;3.30;;;2.30;;
34984;SDS011;21190;58.750;17.004;2023-08-24T04:08:06;4.30;;;2.25;;
34984;SDS011;21190;58.750;17.004;2023-08-24T04:10:34;7.20;;;4.35;;
34984;SDS011;21190;58.750;17.004;2023-08-24T04:13:01;5.45;;;2.50;;
34984;SDS011;21190;58.750;17.004;2023-08-24T04:15:27;4.55;;;2.50;;
34984;SDS011;21190;58.750;17.004;2023-08-24T04:17:54;4.93;;;2.50;;
34984;SDS011;21190;58.750;17.004;2023-08-24T04:20:23;8.20;;;2.92;;
34984;SDS011;21190;58.750;17.004;2023-08-24T04:22:50;10.23;;;2.88;;
34984;SDS011;21190;58.750;17.004;2023-08-24T04:25:17;5.82;;;2.85;;
34984;SDS011;21190;58.750;17.004;2023-08-24T04:27:44;8.27;;;2.70;;
34984;SDS011;21190;58.750;17.004;2023-08-24T04:30:10;9.27;;;3.00;;
34984;SDS011;21190;58.750;17.004;2023-08-24T04:32:38;7.68;;;3.22;;
34984;SDS011;21190;58.750;17.004;2023-08-24T04:35:06;10.82;;;2.63;;
34984;SDS011;21190;58.750;17.004;2023-08-24T04:37:34;5.38;;;2.80;;
34984;SDS011;21190;58.750;17.004;2023-08-24T04:40:01;7.22;;;2.70;;
34984;SDS011;21190;58.750;17.004;2023-08-24T04:42:28;5.38;;;2.70;;
34984;SDS011;21190;58.750;17.004;2023-08-24T04:44:54;4.88;;;2.92;;
34984;SDS011;21190;58.750;17.004;2023-08-24T04:47:25;7.68;;;3.10;;
34984;SDS011;21190;58.750;17.004;2023-08-24T04:49:52;6.97;;;2.58;;
34984;SDS011;21190;58.750;17.004;2023-08-24T04:52:19;10.33;;;3.10;;
34984;SDS011;21190;58.750;17.004;2023-08-24T04:54:45;8.18;;;3.75;;
34984;SDS011;21190;58.750;17.004;2023-08-24T04:57:13;5.70;;;2.47;;
34984;SDS011;21190;58.750;17.004;2023-08-24T04:59:40;11.02;;;2.95;;
34984;SDS011;21190;58.750;17.004;2023-08-24T05:02:07;5.72;;;2.45;;
34984;SDS011;21190;58.750;17.004;2023-08-24T05:04:34;5.35;;;2.67;;
34984;SDS011;21190;58.750;17.004;2023-08-24T05:07:01;6.32;;;2.60;;
34984;SDS011;21190;58.750;17.004;2023-08-24T05:09:28;5.25;;;2.92;;
34984;SDS011;21190;58.750;17.004;2023-08-24T05:11:55;7.70;;;3.22;;
34984;SDS011;21190;58.750;17.004;2023-08-24T05:14:22;6.70;;;2.97;;
34984;SDS011;21190;58.750;17.004;2023-08-24T05:16:49;4.82;;;2.60;;
34984;SDS011;21190;58.750;17.004;2023-08-24T05:19:16;8.77;;;2.80;;
34984;SDS011;21190;58.750;17.004;2023-08-24T05:21:43;10.65;;;3.10;;
34984;SDS011;21190;58.750;17.004;2023-08-24T05:24:10;7.93;;;3.30;;
34984;SDS011;21190;58.750;17.004;2023-08-24T05:26:37;10.30;;;3.17;;
34984;SDS011;21190;58.750;17.004;2023-08-24T05:29:04;4.82;;;2.40;;
34984;SDS011;21190;58.750;17.004;2023-08-24T05:31:31;5.25;;;2.70;;
34984;SDS011;21190;58.750;17.004;2023-08-24T05:33:58;9.43;;;2.30;;
34984;SDS011;21190;58.750;17.004;2023-08-24T05:36:25;10.13;;;2.40;;
34984;SDS011;21190;58.750;17.004;2023-08-24T05:38:52;6.25;;;3.05;;
34984;SDS011;21190;58.750;17.004;2023-08-24T05:41:31;7.22;;;2.83;;
34984;SDS011;21190;58.750;17.004;2023-08-24T05:43:58;8.68;;;2.50;;
34984;SDS011;21190;58.750;17.004;2023-08-24T05:46:25;5.65;;;2.67;;
34984;SDS011;21190;58.750;17.004;2023-08-24T05:48:52;7.28;;;2.45;;
34984;SDS011;21190;58.750;17.004;2023-08-24T05:51:19;4.70;;;2.70;;
34984;SDS011;21190;58.750;17.004;2023-08-24T05:53:46;8.05;;;3.10;;
34984;SDS011;21190;58.750;17.004;2023-08-24T05:56:13;7.45;;;2.42;;
34984;SDS011;21190;58.750;17.004;2023-08-24T05:58:40;4.53;;;2.38;;
34984;SDS011;21190;58.750;17.004;2023-08-24T06:01:07;4.35;;;1.98;;
34984;SDS011;21190;58.750;17.004;2023-08-24T06:03:34;5.80;;;2.60;;
34984;SDS011;21190;58.750;17.004;2023-08-24T06:06:02;8.95;;;2.50;;
34984;SDS011;21190;58.750;17.004;2023-08-24T06:08:30;6.53;;;1.90;;
34984;SDS011;21190;58.750;17.004;2023-08-24T06:10:57;7.93;;;2.03;;
34984;SDS011;21190;58.750;17.004;2023-08-24T06:13:25;5.60;;;2.30;;
34984;SDS011;21190;58.750;17.004;2023-08-24T06:15:52;5.18;;;2.50;;
34984;SDS011;21190;58.750;17.004;2023-08-24T06:18:20;4.47;;;2.25;;
34984;SDS011;21190;58.750;17.004;2023-08-24T06:20:47;5.50;;;2.35;;
34984;SDS011;21190;58.750;17.004;2023-08-24T06:23:17;7.93;;;2.42;;
34984;SDS011;21190;58.750;17.004;2023-08-24T06:25:44;7.10;;;2.28;;
34984;SDS011;21190;58.750;17.004;2023-08-24T06:28:12;10.82;;;2.50;;
34984;SDS011;21190;58.750;17.004;2023-08-24T06:30:40;10.35;;;2.13;;
34984;SDS011;21190;58.750;17.004;2023-08-24T06:33:09;7.45;;;1.90;;
34984;SDS011;21190;58.750;17.004;2023-08-24T06:35:37;5.93;;;2.72;;
34984;SDS011;21190;58.750;17.004;2023-08-24T06:38:04;6.15;;;2.63;;
34984;SDS011;21190;58.750;17.004;2023-08-24T06:40:32;5.40;;;1.98;;
34984;SDS011;21190;58.750;17.004;2023-08-24T06:42:59;9.35;;;2.05;;
34984;SDS011;21190;58.750;17.004;2023-08-24T06:45:26;7.18;;;1.90;;
34984;SDS011;21190;58.750;17.004;2023-08-24T06:47:53;4.28;;;1.90;;
34984;SDS011;21190;58.750;17.004;2023-08-24T06:50:20;7.53;;;2.53;;
34984;SDS011;21190;58.750;17.004;2023-08-24T06:52:47;4.53;;;1.73;;
34984;SDS011;21190;58.750;17.004;2023-08-24T06:55:14;6.60;;;1.73;;
34984;SDS011;21190;58.750;17.004;2023-08-24T06:57:42;4.63;;;1.88;;
34984;SDS011;21190;58.750;17.004;2023-08-24T07:00:15;3.22;;;2.08;;
34984;SDS011;21190;58.750;17.004;2023-08-24T07:02:42;7.28;;;1.70;;
34984;SDS011;21190;58.750;17.004;2023-08-24T07:05:09;4.60;;;2.40;;
34984;SDS011;21190;58.750;17.004;2023-08-24T07:07:38;9.55;;;1.90;;
34984;SDS011;21190;58.750;17.004;2023-08-24T07:10:05;3.63;;;1.50;;
34984;SDS011;21190;58.750;17.004;2023-08-24T07:12:33;4.18;;;1.92;;
34984;SDS011;21190;58.750;17.004;2023-08-24T07:15:00;2.85;;;1.40;;
34984;SDS011;21190;58.750;17.004;2023-08-24T07:17:27;7.90;;;1.90;;
34984;SDS011;21190;58.750;17.004;2023-08-24T07:19:54;5.50;;;1.50;;
34984;SDS011;21190;58.750;17.004;2023-08-24T07:22:21;4.53;;;1.73;;
34984;SDS011;21190;58.750;17.004;2023-08-24T07:24:48;3.47;;;1.40;;
34984;SDS011;21190;58.750;17.004;2023-08-24T07:27:18;7.07;;;2.05;;
34984;SDS011;21190;58.750;17.004;2023-08-24T07:29:45;4.13;;;1.65;;
34984;SDS011;21190;58.750;17.004;2023-08-24T07:32:12;4.93;;;1.75;;
34984;SDS011;21190;58.750;17.004;2023-08-24T07:34:39;3.65;;;1.92;;
34984;SDS011;21190;58.750;17.004;2023-08-24T07:37:07;8.32;;;1.48;;
34984;SDS011;21190;58.750;17.004;2023-08-24T07:39:33;5.95;;;1.60;;
34984;SDS011;21190;58.750;17.004;2023-08-24T07:42:00;6.38;;;1.83;;
34984;SDS011;21190;58.750;17.004;2023-08-24T07:44:27;5.80;;;1.40;;
34984;SDS011;21190;58.750;17.004;2023-08-24T07:46:54;3.38;;;1.98;;
34984;SDS011;21190;58.750;17.004;2023-08-24T07:49:21;6.82;;;2.13;;
34984;SDS011;21190;58.750;17.004;2023-08-24T07:51:48;2.15;;;1.45;;
34984;SDS011;21190;58.750;17.004;2023-08-24T07:54:15;5.45;;;1.65;;
34984;SDS011;21190;58.750;17.004;2023-08-24T07:56:42;3.75;;;1.60;;
34984;SDS011;21190;58.750;17.004;2023-08-24T07:59:10;10.38;;;2.10;;
34984;SDS011;21190;58.750;17.004;2023-08-24T08:01:36;3.83;;;1.58;;
34984;SDS011;21190;58.750;17.004;2023-08-24T08:04:04;6.18;;;1.55;;
34984;SDS011;21190;58.750;17.004;2023-08-24T08:06:31;7.82;;;1.67;;
34984;SDS011;21190;58.750;17.004;2023-08-24T08:08:58;3.20;;;1.30;;
34984;SDS011;21190;58.750;17.004;2023-08-24T08:11:24;2.47;;;1.40;;
34984;SDS011;21190;58.750;17.004;2023-08-24T08:13:51;2.47;;;1.30;;
34984;SDS011;21190;58.750;17.004;2023-08-24T08:16:18;4.78;;;2.50;;
34984;SDS011;21190;58.750;17.004;2023-08-24T08:18:46;4.13;;;1.70;;
34984;SDS011;21190;58.750;17.004;2023-08-24T08:21:16;3.47;;;1.20;;
34984;SDS011;21190;58.750;17.004;2023-08-24T08:23:48;2.43;;;1.20;;
34984;SDS011;21190;58.750;17.004;2023-08-24T08:26:15;5.60;;;1.27;;
34984;SDS011;21190;58.750;17.004;2023-08-24T08:28:42;5.30;;;1.60;;
34984;SDS011;21190;58.750;17.004;2023-08-24T08:31:11;7.30;;;1.50;;
34984;SDS011;21190;58.750;17.004;2023-08-24T08:33:38;7.43;;;1.20;;
34984;SDS011;21190;58.750;17.004;2023-08-24T08:36:05;4.70;;;1.40;;
34984;SDS011;21190;58.750;17.004;2023-08-24T08:38:32;5.55;;;1.23;;
34984;SDS011;21190;58.750;17.004;2023-08-24T08:41:03;4.57;;;1.77;;
34984;SDS011;21190;58.750;17.004;2023-08-24T08:43:31;5.78;;;1.77;;
34984;SDS011;21190;58.750;17.004;2023-08-24T08:45:58;3.15;;;1.40;;
34984;SDS011;21190;58.750;17.004;2023-08-24T08:48:26;4.53;;;1.30;;
34984;SDS011;21190;58.750;17.004;2023-08-24T08:50:57;4.10;;;1.25;;
34984;SDS011;21190;58.750;17.004;2023-08-24T08:53:24;4.75;;;1.42;;
34984;SDS011;21190;58.750;17.004;2023-08-24T08:55:51;3.65;;;1.60;;
34984;SDS011;21190;58.750;17.004;2023-08-24T08:58:22;4.63;;;1.50;;
34984;SDS011;21190;58.750;17.004;2023-08-24T09:00:51;2.80;;;1.23;;
34984;SDS011;21190;58.750;17.004;2023-08-24T09:03:19;6.22;;;1.48;;
34984;SDS011;21190;58.750;17.004;2023-08-24T09:05:46;10.52;;;2.15;;
34984;SDS011;21190;58.750;17.004;2023-08-24T09:08:17;6.60;;;1.42;;
34984;SDS011;21190;58.750;17.004;2023-08-24T09:10:44;2.35;;;1.08;;
34984;SDS011;21190;58.750;17.004;2023-08-24T09:13:11;4.40;;;1.27;;
34984;SDS011;21190;58.750;17.004;2023-08-24T09:15:39;7.10;;;1.17;;
34984;SDS011;21190;58.750;17.004;2023-08-24T09:18:06;3.20;;;1.17;;
34984;SDS011;21190;58.750;17.004;2023-08-24T09:20:34;3.55;;;1.30;;
34984;SDS011;21190;58.750;17.004;2023-08-24T09:23:01;6.15;;;1.90;;
34984;SDS011;21190;58.750;17.004;2023-08-24T09:25:29;6.95;;;1.85;;
34984;SDS011;21190;58.750;17.004;2023-08-24T09:27:59;3.53;;;1.50;;
34984;SDS011;21190;58.750;17.004;2023-08-24T09:30:28;4.10;;;1.73;;
34984;SDS011;21190;58.750;17.004;2023-08-24T09:33:03;6.72;;;1.80;;
34984;SDS011;21190;58.750;17.004;2023-08-24T09:35:34;5.05;;;1.58;;
34984;SDS011;21190;58.750;17.004;2023-08-24T09:40:50;1.67;;;1.17;;
34984;SDS011;21190;58.750;17.004;2023-08-24T09:43:19;5.78;;;1.52;;
34984;SDS011;21190;58.750;17.004;2023-08-24T09:45:53;3.30;;;1.38;;
34984;SDS011;21190;58.750;17.004;2023-08-24T09:48:22;3.17;;;1.30;;
34984;SDS011;21190;58.750;17.004;2023-08-24T09:50:52;14.88;;;1.70;;
34984;SDS011;21190;58.750;17.004;2023-08-24T09:53:22;3.05;;;1.45;;
34984;SDS011;21190;58.750;17.004;2023-08-24T09:55:54;3.80;;;1.35;;
34984;SDS011;21190;58.750;17.004;2023-08-24T09:58:25;3.88;;;1.30;;
34984;SDS011;21190;58.750;17.004;2023-08-24T10:00:53;4.38;;;1.27;;
34984;SDS011;21190;58.750;17.004;2023-08-24T10:03:25;3.80;;;1.40;;
34984;SDS011;21190;58.750;17.004;2023-08-24T10:05:54;2.65;;;1.35;;
34984;SDS011;21190;58.750;17.004;2023-08-24T10:08:35;2.13;;;1.17;;
34984;SDS011;21190;58.750;17.004;2023-08-24T10:11:06;6.80;;;1.50;;
34984;SDS011;21190;58.750;17.004;2023-08-24T10:13:42;2.10;;;1.40;;
34984;SDS011;21190;58.750;17.004;2023-08-24T10:16:14;7.75;;;1.50;;
34984;SDS011;21190;58.750;17.004;2023-08-24T10:18:42;7.45;;;1.75;;
34984;SDS011;21190;58.750;17.004;2023-08-24T10:21:10;5.40;;;1.50;;
34984;SDS011;21190;58.750;17.004;2023-08-24T10:23:37;2.28;;;1.13;;
34984;SDS011;21190;58.750;17.004;2023-08-24T10:26:06;6.38;;;1.70;;
34984;SDS011;21190;58.750;17.004;2023-08-24T10:28:34;3.70;;;1.83;;
34984;SDS011;21190;58.750;17.004;2023-08-24T10:31:01;5.47;;;1.50;;
34984;SDS011;21190;58.750;17.004;2023-08-24T10:33:29;5.50;;;1.30;;
34984;SDS011;21190;58.750;17.004;2023-08-24T10:35:57;2.25;;;1.10;;
34984;SDS011;21190;58.750;17.004;2023-08-24T10:38:25;2.40;;;1.17;;
34984;SDS011;21190;58.750;17.004;2023-08-24T10:41:03;5.28;;;1.42;;
34984;SDS011;21190;58.750;17.004;2023-08-24T10:43:35;14.38;;;1.65;;
34984;SDS011;21190;58.750;17.004;2023-08-24T10:46:03;11.52;;;1.70;;
34984;SDS011;21190;58.750;17.004;2023-08-24T10:48:56;4.50;;;1.33;;
34984;SDS011;21190;58.750;17.004;2023-08-24T10:51:24;7.53;;;1.70;;
34984;SDS011;21190;58.750;17.004;2023-08-24T10:53:57;2.95;;;1.35;;
34984;SDS011;21190;58.750;17.004;2023-08-24T10:56:29;4.88;;;1.35;;
34984;SDS011;21190;58.750;17.004;2023-08-24T10:59:16;6.90;;;1.38;;
34984;SDS011;21190;58.750;17.004;2023-08-24T11:04:24;3.75;;;0.98;;
34984;SDS011;21190;58.750;17.004;2023-08-24T11:06:55;5.20;;;1.20;;
34984;SDS011;21190;58.750;17.004;2023-08-24T11:09:25;4.60;;;1.13;;
34984;SDS011;21190;58.750;17.004;2023-08-24T11:14:24;5.00;;;1.30;;
34984;SDS011;21190;58.750;17.004;2023-08-24T11:17:01;3.13;;;1.30;;
34984;SDS011;21190;58.750;17.004;2023-08-24T11:19:50;3.05;;;1.38;;
34984;SDS011;21190;58.750;17.004;2023-08-24T11:22:18;4.22;;;1.20;;
34984;SDS011;21190;58.750;17.004;2023-08-24T11:24:45;2.45;;;1.25;;
34984;SDS011;21190;58.750;17.004;2023-08-24T11:27:13;2.72;;;1.10;;
34984;SDS011;21190;58.750;17.004;2023-08-24T11:29:40;3.70;;;1.20;;
34984;SDS011;21190;58.750;17.004;2023-08-24T11:32:07;4.28;;;1.65;;
34984;SDS011;21190;58.750;17.004;2023-08-24T11:34:35;4.97;;;1.75;;
34984;SDS011;21190;58.750;17.004;2023-08-24T11:37:02;3.90;;;1.00;;
34984;SDS011;21190;58.750;17.004;2023-08-24T11:39:29;3.53;;;1.77;;
34984;SDS011;21190;58.750;17.004;2023-08-24T11:44:27;4.82;;;1.20;;
34984;SDS011;21190;58.750;17.004;2023-08-24T11:47:15;4.85;;;1.70;;
34984;SDS011;21190;58.750;17.004;2023-08-24T11:49:42;6.03;;;1.77;;
34984;SDS011;21190;58.750;17.004;2023-08-24T11:52:09;2.47;;;0.93;;
34984;SDS011;21190;58.750;17.004;2023-08-24T11:54:37;3.70;;;1.42;;
34984;SDS011;21190;58.750;17.004;2023-08-24T11:57:08;6.40;;;1.48;;
34984;SDS011;21190;58.750;17.004;2023-08-24T11:59:35;4.50;;;1.15;;
34984;SDS011;21190;58.750;17.004;2023-08-24T12:02:05;3.97;;;1.40;;
34984;SDS011;21190;58.750;17.004;2023-08-24T12:04:39;3.65;;;1.30;;
34984;SDS011;21190;58.750;17.004;2023-08-24T12:07:12;4.65;;;1.42;;
34984;SDS011;21190;58.750;17.004;2023-08-24T12:09:39;5.75;;;2.05;;
34984;SDS011;21190;58.750;17.004;2023-08-24T12:12:16;4.63;;;1.52;;
34984;SDS011;21190;58.750;17.004;2023-08-24T12:14:45;6.35;;;1.88;;
34984;SDS011;21190;58.750;17.004;2023-08-24T12:17:13;4.25;;;1.67;;
34984;SDS011;21190;58.750;17.004;2023-08-24T12:19:42;6.40;;;2.35;;
34984;SDS011;21190;58.750;17.004;2023-08-24T12:22:21;8.98;;;1.63;;
34984;SDS011;21190;58.750;17.004;2023-08-24T12:24:48;6.50;;;1.95;;
34984;SDS011;21190;58.750;17.004;2023-08-24T12:27:19;5.47;;;1.65;;
34984;SDS011;21190;58.750;17.004;2023-08-24T12:29:49;3.22;;;1.42;;
34984;SDS011;21190;58.750;17.004;2023-08-24T12:32:17;3.45;;;1.50;;
34984;SDS011;21190;58.750;17.004;2023-08-24T12:34:51;5.53;;;1.40;;
34984;SDS011;21190;58.750;17.004;2023-08-24T12:37:21;5.68;;;1.58;;
34984;SDS011;21190;58.750;17.004;2023-08-24T12:39:48;8.18;;;1.52;;
34984;SDS011;21190;58.750;17.004;2023-08-24T12:42:15;12.15;;;1.90;;
34984;SDS011;21190;58.750;17.004;2023-08-24T12:44:42;7.38;;;1.67;;
34984;SDS011;21190;58.750;17.004;2023-08-24T12:47:09;5.55;;;1.88;;
34984;SDS011;21190;58.750;17.004;2023-08-24T12:49:36;6.68;;;1.38;;
34984;SDS011;21190;58.750;17.004;2023-08-24T12:52:03;10.68;;;2.42;;
34984;SDS011;21190;58.750;17.004;2023-08-24T12:54:30;9.73;;;1.80;;
34984;SDS011;21190;58.750;17.004;2023-08-24T12:56:57;10.98;;;1.60;;
34984;SDS011;21190;58.750;17.004;2023-08-24T12:59:24;6.18;;;1.60;;
34984;SDS011;21190;58.750;17.004;2023-08-24T13:01:51;9.23;;;1.88;;
34984;SDS011;21190;58.750;17.004;2023-08-24T13:04:18;8.85;;;1.70;;
34984;SDS011;21190;58.750;17.004;2023-08-24T13:06:45;5.68;;;1.30;;
34984;SDS011;21190;58.750;17.004;2023-08-24T13:09:12;4.80;;;1.27;;
34984;SDS011;21190;58.750;17.004;2023-08-24T13:11:40;3.72;;;1.27;;
34984;SDS011;21190;58.750;17.004;2023-08-24T13:14:07;10.00;;;1.50;;
34984;SDS011;21190;58.750;17.004;2023-08-24T13:16:34;8.25;;;1.38;;
34984;SDS011;21190;58.750;17.004;2023-08-24T13:19:01;3.22;;;1.15;;
34984;SDS011;21190;58.750;17.004;2023-08-24T13:21:28;4.90;;;1.42;;
34984;SDS011;21190;58.750;17.004;2023-08-24T13:23:55;3.22;;;1.38;;
34984;SDS011;21190;58.750;17.004;2023-08-24T13:26:22;2.75;;;1.90;;
34984;SDS011;21190;58.750;17.004;2023-08-24T13:28:50;3.60;;;1.52;;
34984;SDS011;21190;58.750;17.004;2023-08-24T13:31:17;3.88;;;1.20;;
34984;SDS011;21190;58.750;17.004;2023-08-24T13:33:45;4.25;;;1.38;;
34984;SDS011;21190;58.750;17.004;2023-08-24T13:36:12;4.22;;;1.40;;
34984;SDS011;21190;58.750;17.004;2023-08-24T13:38:39;3.78;;;1.30;;
34984;SDS011;21190;58.750;17.004;2023-08-24T13:41:06;9.77;;;1.42;;
34984;SDS011;21190;58.750;17.004;2023-08-24T13:43:33;5.13;;;1.80;;
34984;SDS011;21190;58.750;17.004;2023-08-24T13:46:00;2.30;;;1.50;;
34984;SDS011;21190;58.750;17.004;2023-08-24T13:48:30;4.63;;;1.30;;
34984;SDS011;21190;58.750;17.004;2023-08-24T13:51:00;4.65;;;1.80;;
34984;SDS011;21190;58.750;17.004;2023-08-24T13:53:27;9.85;;;1.98;;
34984;SDS011;21190;58.750;17.004;2023-08-24T13:55:54;11.70;;;1.80;;
34984;SDS011;21190;58.750;17.004;2023-08-24T13:58:22;12.07;;;2.20;;
34984;SDS011;21190;58.750;17.004;2023-08-24T14:00:56;1.85;;;1.45;;
34984;SDS011;21190;58.750;17.004;2023-08-24T14:03:24;6.22;;;1.90;;
34984;SDS011;21190;58.750;17.004;2023-08-24T14:05:57;2.67;;;1.20;;
34984;SDS011;21190;58.750;17.004;2023-08-24T14:08:24;2.35;;;1.63;;
34984;SDS011;21190;58.750;17.004;2023-08-24T14:10:52;6.38;;;1.00;;
34984;SDS011;21190;58.750;17.004;2023-08-24T14:13:19;4.68;;;1.35;;
34984;SDS011;21190;58.750;17.004;2023-08-24T14:15:49;5.13;;;1.48;;
34984;SDS011;21190;58.750;17.004;2023-08-24T14:18:17;4.70;;;1.40;;
34984;SDS011;21190;58.750;17.004;2023-08-24T14:20:44;4.28;;;1.27;;
34984;SDS011;21190;58.750;17.004;2023-08-24T14:23:11;2.58;;;1.20;;
34984;SDS011;21190;58.750;17.004;2023-08-24T14:25:38;7.60;;;1.98;;
34984;SDS011;21190;58.750;17.004;2023-08-24T14:28:05;5.85;;;2.10;;
34984;SDS011;21190;58.750;17.004;2023-08-24T14:30:35;3.38;;;1.30;;
34984;SDS011;21190;58.750;17.004;2023-08-24T14:33:02;3.95;;;1.10;;
34984;SDS011;21190;58.750;17.004;2023-08-24T14:35:29;6.10;;;1.92;;
34984;SDS011;21190;58.750;17.004;2023-08-24T14:37:59;5.63;;;1.50;;
34984;SDS011;21190;58.750;17.004;2023-08-24T14:40:26;6.13;;;1.30;;
34984;SDS011;21190;58.750;17.004;2023-08-24T14:42:53;2.42;;;1.17;;
34984;SDS011;21190;58.750;17.004;2023-08-24T14:45:21;11.35;;;1.35;;
34984;SDS011;21190;58.750;17.004;2023-08-24T14:47:48;4.70;;;1.90;;
34984;SDS011;21190;58.750;17.004;2023-08-24T14:50:16;3.35;;;1.23;;
34984;SDS011;21190;58.750;17.004;2023-08-24T14:52:43;7.97;;;1.70;;
34984;SDS011;21190;58.750;17.004;2023-08-24T14:55:10;4.00;;;1.55;;
34984;SDS011;21190;58.750;17.004;2023-08-24T14:57:38;3.53;;;1.48;;
34984;SDS011;21190;58.750;17.004;2023-08-24T15:00:05;4.57;;;1.15;;